Nyiregyhaza, Hungary
Current Conditions -  °F | °C
As of 1:45 PM on Monday 24 Nov 2014 (Local Time) from LHDC Reporting Station
Few Clouds Few Clouds  
Wind Chill: 42°   Ceiling: Unl
Heat Index: 45°   Visibility: 6mi
Dew Point: 34°   Wind: 5mph
Humidity: 66%   Direction: 80°E
Pressure: 30.36"   Gusts: NA
Location:  47.96°N, 21.72°E
Report Text: LHDC 241145Z 08004KT 9999 FEW026 07/01 Q1028 NOSIG
Loading
Personal Weather Stations






























Interactive Weather Map New forecast layout! Learn more

10-Day Weather Forecast

Advertisements
Track Severe Weather on mobile